Hingurakgoda Air Force Base


Codes: VCCH/MNH
Name: Hingurakgoda Air Force Base
City: Polonnaruwa Town
Country: Sri Lanka
Elevation: 170 ft.
Website:

Photos at Hingurakgoda Air Force Base


   Photos courtesy of SpottingLog. You can add your own sightings and photos by signing up for a free trial today.



No photos found.

Weather at Hingurakgoda Air Force Base


Time (UTC)DescriptionTempratureWindCloud coverageVisibilityPressureHumidity
13-Jun-2024 00:00Overcast Clouds27°C13 mph, SW100%10000m1009hPa73%
13-Jun-2024 03:00Overcast Clouds28°C16 mph, SW99%10000m1010hPa69%
13-Jun-2024 06:00Overcast Clouds31°C18 mph, SW100%10000m1010hPa57%
13-Jun-2024 09:00Overcast Clouds34°C18 mph, W97%10000m1008hPa45%
13-Jun-2024 12:00Overcast Clouds30°C13 mph, W99%10000m1008hPa61%
13-Jun-2024 15:00Overcast Clouds27°C13 mph, SW100%10000m1010hPa74%
13-Jun-2024 18:00Overcast Clouds27°C13 mph, SW100%10000m1010hPa75%
13-Jun-2024 21:00Overcast Clouds27°C13 mph, SW100%10000m1008hPa74%
14-Jun-2024 00:00Overcast Clouds27°C13 mph, SW100%10000m1008hPa73%
14-Jun-2024 03:00Overcast Clouds29°C16 mph, SW100%10000m1009hPa65%
14-Jun-2024 06:00Overcast Clouds33°C18 mph, SW100%10000m1008hPa51%
14-Jun-2024 09:00Overcast Clouds32°C16 mph, W100%10000m1006hPa50%
14-Jun-2024 12:00Overcast Clouds30°C13 mph, W89%10000m1007hPa63%
14-Jun-2024 15:00Overcast Clouds27°C13 mph, SW94%10000m1009hPa73%
14-Jun-2024 18:00Overcast Clouds27°C13 mph, SW97%10000m1009hPa74%
14-Jun-2024 21:00Overcast Clouds27°C16 mph, SW100%10000m1007hPa75%
15-Jun-2024 00:00Overcast Clouds26°C16 mph, SW100%10000m1007hPa76%
15-Jun-2024 03:00Overcast Clouds28°C16 mph, SW100%10000m1009hPa71%
15-Jun-2024 06:00Overcast Clouds30°C18 mph, SW100%10000m1008hPa59%
15-Jun-2024 09:00Overcast Clouds31°C18 mph, W100%10000m1006hPa54%
15-Jun-2024 12:00Overcast Clouds29°C16 mph, SW100%10000m1006hPa65%
15-Jun-2024 15:00Overcast Clouds27°C13 mph, SW98%10000m1009hPa75%
15-Jun-2024 18:00Overcast Clouds27°C13 mph, SW94%10000m1009hPa71%
15-Jun-2024 21:00Broken Clouds26°C16 mph, SW80%10000m1007hPa76%
16-Jun-2024 00:00Broken Clouds26°C16 mph, SW77%10000m1007hPa76%
16-Jun-2024 03:00Overcast Clouds29°C18 mph, SW100%10000m1009hPa64%
16-Jun-2024 06:00Overcast Clouds33°C18 mph, W100%10000m1008hPa46%
16-Jun-2024 09:00Overcast Clouds34°C18 mph, W90%10000m1006hPa42%
16-Jun-2024 12:00Broken Clouds31°C13 mph, SW75%10000m1007hPa55%
16-Jun-2024 15:00Overcast Clouds27°C13 mph, SW99%10000m1009hPa74%
16-Jun-2024 18:00Overcast Clouds27°C13 mph, SW99%10000m1009hPa72%
16-Jun-2024 21:00Overcast Clouds26°C16 mph, SW100%10000m1007hPa76%
17-Jun-2024 00:00Overcast Clouds26°C13 mph, SW99%10000m1009hPa77%
17-Jun-2024 03:00Overcast Clouds29°C18 mph, SW94%10000m1009hPa64%
17-Jun-2024 06:00Overcast Clouds33°C18 mph, SW97%10000m1008hPa46%
17-Jun-2024 09:00Overcast Clouds34°C18 mph, W100%10000m1006hPa43%
17-Jun-2024 12:00Overcast Clouds30°C13 mph, SW100%10000m1007hPa57%
17-Jun-2024 15:00Overcast Clouds27°C13 mph, SW100%10000m1010hPa71%
17-Jun-2024 18:00Overcast Clouds27°C16 mph, SW100%10000m1009hPa73%
17-Jun-2024 21:00Overcast Clouds26°C13 mph, SW97%10000m1008hPa77%